sensor_id;sensor_type;location;lat;lon;timestamp;P1;durP1;ratioP1;P2;durP2;ratioP2
55069;SDS011;40967;52.070;8.596;2022-08-20T00:00:45;3.80;;;2.60;;
55069;SDS011;40967;52.070;8.596;2022-08-20T00:05:47;3.17;;;2.25;;
55069;SDS011;40967;52.070;8.596;2022-08-20T00:08:16;4.45;;;3.10;;
55069;SDS011;40967;52.070;8.596;2022-08-20T00:10:43;4.47;;;3.03;;
55069;SDS011;40967;52.070;8.596;2022-08-20T00:13:11;4.33;;;2.50;;
55069;SDS011;40967;52.070;8.596;2022-08-20T00:15:40;4.65;;;3.40;;
55069;SDS011;40967;52.070;8.596;2022-08-20T00:18:06;4.80;;;3.20;;
55069;SDS011;40967;52.070;8.596;2022-08-20T00:20:39;5.05;;;3.20;;
55069;SDS011;40967;52.070;8.596;2022-08-20T00:23:07;4.35;;;3.10;;
55069;SDS011;40967;52.070;8.596;2022-08-20T00:25:33;4.13;;;2.50;;
55069;SDS011;40967;52.070;8.596;2022-08-20T00:27:58;3.77;;;2.50;;
55069;SDS011;40967;52.070;8.596;2022-08-20T00:30:24;4.27;;;3.00;;
55069;SDS011;40967;52.070;8.596;2022-08-20T00:32:52;4.07;;;2.80;;
55069;SDS011;40967;52.070;8.596;2022-08-20T00:35:29;3.83;;;2.45;;
55069;SDS011;40967;52.070;8.596;2022-08-20T00:37:56;3.78;;;2.50;;
55069;SDS011;40967;52.070;8.596;2022-08-20T00:40:24;4.40;;;3.08;;
55069;SDS011;40967;52.070;8.596;2022-08-20T00:42:55;4.47;;;2.53;;
55069;SDS011;40967;52.070;8.596;2022-08-20T00:45:23;3.28;;;2.10;;
55069;SDS011;40967;52.070;8.596;2022-08-20T00:47:51;3.20;;;2.00;;
55069;SDS011;40967;52.070;8.596;2022-08-20T00:50:19;2.92;;;1.90;;
55069;SDS011;40967;52.070;8.596;2022-08-20T00:52:49;2.80;;;1.92;;
55069;SDS011;40967;52.070;8.596;2022-08-20T00:55:17;2.17;;;1.50;;
55069;SDS011;40967;52.070;8.596;2022-08-20T00:57:46;2.22;;;1.42;;
55069;SDS011;40967;52.070;8.596;2022-08-20T01:00:19;2.92;;;1.80;;
55069;SDS011;40967;52.070;8.596;2022-08-20T01:02:48;2.55;;;1.63;;
55069;SDS011;40967;52.070;8.596;2022-08-20T01:05:14;2.70;;;1.60;;
55069;SDS011;40967;52.070;8.596;2022-08-20T01:07:40;2.47;;;1.60;;
55069;SDS011;40967;52.070;8.596;2022-08-20T01:10:07;2.20;;;1.50;;
55069;SDS011;40967;52.070;8.596;2022-08-20T01:12:37;2.85;;;1.70;;
55069;SDS011;40967;52.070;8.596;2022-08-20T01:15:04;3.22;;;1.80;;
55069;SDS011;40967;52.070;8.596;2022-08-20T01:17:35;2.50;;;1.70;;
55069;SDS011;40967;52.070;8.596;2022-08-20T01:20:22;2.20;;;1.60;;
55069;SDS011;40967;52.070;8.596;2022-08-20T01:31:06;2.22;;;1.50;;
55069;SDS011;40967;52.070;8.596;2022-08-20T01:33:37;3.33;;;1.70;;
55069;SDS011;40967;52.070;8.596;2022-08-20T01:36:03;2.67;;;1.67;;
55069;SDS011;40967;52.070;8.596;2022-08-20T01:38:30;2.00;;;1.50;;
55069;SDS011;40967;52.070;8.596;2022-08-20T01:43:26;2.20;;;1.30;;
55069;SDS011;40967;52.070;8.596;2022-08-20T01:45:52;1.52;;;1.10;;
55069;SDS011;40967;52.070;8.596;2022-08-20T01:48:18;1.45;;;1.00;;
55069;SDS011;40967;52.070;8.596;2022-08-20T01:50:47;1.80;;;1.10;;
55069;SDS011;40967;52.070;8.596;2022-08-20T01:53:23;1.67;;;1.20;;
55069;SDS011;40967;52.070;8.596;2022-08-20T01:55:57;1.38;;;0.90;;
55069;SDS011;40967;52.070;8.596;2022-08-20T01:58:24;1.67;;;1.10;;
55069;SDS011;40967;52.070;8.596;2022-08-20T02:00:51;1.77;;;1.10;;
55069;SDS011;40967;52.070;8.596;2022-08-20T02:03:16;1.73;;;1.10;;
55069;SDS011;40967;52.070;8.596;2022-08-20T02:05:42;1.80;;;1.13;;
55069;SDS011;40967;52.070;8.596;2022-08-20T02:08:07;2.00;;;1.30;;
55069;SDS011;40967;52.070;8.596;2022-08-20T02:10:33;1.60;;;1.13;;
55069;SDS011;40967;52.070;8.596;2022-08-20T02:12:59;1.50;;;1.02;;
55069;SDS011;40967;52.070;8.596;2022-08-20T02:15:25;1.43;;;1.00;;
55069;SDS011;40967;52.070;8.596;2022-08-20T02:17:51;1.75;;;1.17;;
55069;SDS011;40967;52.070;8.596;2022-08-20T02:20:18;1.57;;;1.10;;
55069;SDS011;40967;52.070;8.596;2022-08-20T02:22:49;1.50;;;0.90;;
55069;SDS011;40967;52.070;8.596;2022-08-20T02:25:18;1.63;;;0.93;;
55069;SDS011;40967;52.070;8.596;2022-08-20T02:27:46;1.33;;;0.90;;
55069;SDS011;40967;52.070;8.596;2022-08-20T02:30:20;2.00;;;1.20;;
55069;SDS011;40967;52.070;8.596;2022-08-20T02:32:48;1.98;;;1.20;;
55069;SDS011;40967;52.070;8.596;2022-08-20T02:35:14;1.73;;;1.30;;
55069;SDS011;40967;52.070;8.596;2022-08-20T02:37:41;2.05;;;1.25;;
55069;SDS011;40967;52.070;8.596;2022-08-20T02:40:09;1.70;;;1.10;;
55069;SDS011;40967;52.070;8.596;2022-08-20T02:42:37;1.50;;;1.17;;
55069;SDS011;40967;52.070;8.596;2022-08-20T02:45:06;1.50;;;1.00;;
55069;SDS011;40967;52.070;8.596;2022-08-20T02:47:35;1.77;;;1.10;;
55069;SDS011;40967;52.070;8.596;2022-08-20T02:50:01;1.50;;;0.90;;
55069;SDS011;40967;52.070;8.596;2022-08-20T02:52:29;1.80;;;1.10;;
55069;SDS011;40967;52.070;8.596;2022-08-20T02:54:54;1.87;;;1.10;;
55069;SDS011;40967;52.070;8.596;2022-08-20T02:57:20;1.83;;;1.23;;
55069;SDS011;40967;52.070;8.596;2022-08-20T02:59:45;2.03;;;1.20;;
55069;SDS011;40967;52.070;8.596;2022-08-20T03:02:12;1.43;;;1.00;;
55069;SDS011;40967;52.070;8.596;2022-08-20T03:04:38;1.83;;;1.10;;
55069;SDS011;40967;52.070;8.596;2022-08-20T03:07:04;2.10;;;1.30;;
55069;SDS011;40967;52.070;8.596;2022-08-20T03:09:30;1.65;;;1.20;;
55069;SDS011;40967;52.070;8.596;2022-08-20T03:11:56;2.28;;;1.40;;
55069;SDS011;40967;52.070;8.596;2022-08-20T03:14:22;2.57;;;1.70;;
55069;SDS011;40967;52.070;8.596;2022-08-20T03:16:47;2.38;;;1.60;;
55069;SDS011;40967;52.070;8.596;2022-08-20T03:19:13;3.33;;;2.22;;
55069;SDS011;40967;52.070;8.596;2022-08-20T03:21:39;3.77;;;2.33;;
55069;SDS011;40967;52.070;8.596;2022-08-20T03:24:05;2.70;;;1.87;;
55069;SDS011;40967;52.070;8.596;2022-08-20T03:26:30;2.95;;;1.88;;
55069;SDS011;40967;52.070;8.596;2022-08-20T03:28:56;2.88;;;1.80;;
55069;SDS011;40967;52.070;8.596;2022-08-20T03:31:21;3.00;;;2.00;;
55069;SDS011;40967;52.070;8.596;2022-08-20T03:33:47;3.53;;;2.17;;
55069;SDS011;40967;52.070;8.596;2022-08-20T03:36:12;3.60;;;2.10;;
55069;SDS011;40967;52.070;8.596;2022-08-20T03:38:37;3.30;;;2.15;;
55069;SDS011;40967;52.070;8.596;2022-08-20T03:41:03;4.00;;;2.43;;
55069;SDS011;40967;52.070;8.596;2022-08-20T03:43:29;3.60;;;2.30;;
55069;SDS011;40967;52.070;8.596;2022-08-20T03:45:55;5.25;;;2.95;;
55069;SDS011;40967;52.070;8.596;2022-08-20T03:48:21;4.17;;;2.87;;
55069;SDS011;40967;52.070;8.596;2022-08-20T03:50:47;4.97;;;3.20;;
55069;SDS011;40967;52.070;8.596;2022-08-20T03:53:13;4.93;;;2.95;;
55069;SDS011;40967;52.070;8.596;2022-08-20T03:55:39;6.10;;;3.95;;
55069;SDS011;40967;52.070;8.596;2022-08-20T03:58:07;5.38;;;3.72;;
55069;SDS011;40967;52.070;8.596;2022-08-20T04:00:43;4.50;;;3.00;;
55069;SDS011;40967;52.070;8.596;2022-08-20T04:03:14;4.65;;;2.90;;
55069;SDS011;40967;52.070;8.596;2022-08-20T04:05:41;4.65;;;3.03;;
55069;SDS011;40967;52.070;8.596;2022-08-20T04:08:09;6.17;;;4.00;;
55069;SDS011;40967;52.070;8.596;2022-08-20T04:10:40;5.47;;;3.53;;
55069;SDS011;40967;52.070;8.596;2022-08-20T04:13:06;4.90;;;3.17;;
55069;SDS011;40967;52.070;8.596;2022-08-20T04:15:31;5.30;;;3.72;;
55069;SDS011;40967;52.070;8.596;2022-08-20T04:17:58;5.35;;;3.70;;
55069;SDS011;40967;52.070;8.596;2022-08-20T04:20:24;4.60;;;3.20;;
55069;SDS011;40967;52.070;8.596;2022-08-20T04:22:52;4.32;;;2.83;;
55069;SDS011;40967;52.070;8.596;2022-08-20T04:25:19;4.15;;;2.80;;
55069;SDS011;40967;52.070;8.596;2022-08-20T04:27:45;4.20;;;2.63;;
55069;SDS011;40967;52.070;8.596;2022-08-20T04:30:12;3.23;;;2.07;;
55069;SDS011;40967;52.070;8.596;2022-08-20T04:32:39;2.67;;;1.83;;
55069;SDS011;40967;52.070;8.596;2022-08-20T04:35:05;3.22;;;1.90;;
55069;SDS011;40967;52.070;8.596;2022-08-20T04:37:33;3.53;;;2.30;;
55069;SDS011;40967;52.070;8.596;2022-08-20T04:40:05;4.22;;;2.50;;
55069;SDS011;40967;52.070;8.596;2022-08-20T04:42:52;5.18;;;3.00;;
55069;SDS011;40967;52.070;8.596;2022-08-20T04:45:17;3.75;;;2.58;;
55069;SDS011;40967;52.070;8.596;2022-08-20T04:47:43;4.07;;;2.40;;
55069;SDS011;40967;52.070;8.596;2022-08-20T04:50:10;3.40;;;1.90;;
55069;SDS011;40967;52.070;8.596;2022-08-20T04:52:36;2.85;;;1.92;;
55069;SDS011;40967;52.070;8.596;2022-08-20T04:55:03;3.00;;;2.00;;
55069;SDS011;40967;52.070;8.596;2022-08-20T04:57:29;2.83;;;1.80;;
55069;SDS011;40967;52.070;8.596;2022-08-20T04:59:54;2.97;;;1.87;;
55069;SDS011;40967;52.070;8.596;2022-08-20T05:02:20;2.87;;;1.80;;
55069;SDS011;40967;52.070;8.596;2022-08-20T05:04:46;3.55;;;2.10;;
55069;SDS011;40967;52.070;8.596;2022-08-20T05:07:13;3.42;;;2.15;;
55069;SDS011;40967;52.070;8.596;2022-08-20T05:09:42;3.50;;;2.10;;
55069;SDS011;40967;52.070;8.596;2022-08-20T05:12:08;3.37;;;2.00;;
55069;SDS011;40967;52.070;8.596;2022-08-20T05:14:34;3.30;;;2.00;;
55069;SDS011;40967;52.070;8.596;2022-08-20T05:17:03;3.53;;;2.20;;
55069;SDS011;40967;52.070;8.596;2022-08-20T05:19:29;3.47;;;2.10;;
55069;SDS011;40967;52.070;8.596;2022-08-20T05:21:56;4.40;;;2.35;;
55069;SDS011;40967;52.070;8.596;2022-08-20T05:24:22;5.22;;;3.60;;
55069;SDS011;40967;52.070;8.596;2022-08-20T05:26:47;5.70;;;4.10;;
55069;SDS011;40967;52.070;8.596;2022-08-20T05:29:13;5.13;;;3.60;;
55069;SDS011;40967;52.070;8.596;2022-08-20T05:31:39;6.38;;;4.35;;
55069;SDS011;40967;52.070;8.596;2022-08-20T05:34:07;6.07;;;3.90;;
55069;SDS011;40967;52.070;8.596;2022-08-20T05:36:34;5.47;;;3.88;;
55069;SDS011;40967;52.070;8.596;2022-08-20T05:39:00;5.73;;;3.93;;
55069;SDS011;40967;52.070;8.596;2022-08-20T05:41:26;6.75;;;4.45;;
55069;SDS011;40967;52.070;8.596;2022-08-20T05:43:55;4.80;;;3.40;;
55069;SDS011;40967;52.070;8.596;2022-08-20T05:46:25;5.37;;;3.90;;
55069;SDS011;40967;52.070;8.596;2022-08-20T05:48:50;5.85;;;4.20;;
55069;SDS011;40967;52.070;8.596;2022-08-20T05:51:16;5.85;;;3.72;;
55069;SDS011;40967;52.070;8.596;2022-08-20T05:53:41;6.20;;;4.50;;
55069;SDS011;40967;52.070;8.596;2022-08-20T05:56:08;6.07;;;4.30;;
55069;SDS011;40967;52.070;8.596;2022-08-20T05:58:35;5.35;;;3.60;;
55069;SDS011;40967;52.070;8.596;2022-08-20T06:01:01;5.72;;;3.70;;
55069;SDS011;40967;52.070;8.596;2022-08-20T06:03:26;6.70;;;4.63;;
55069;SDS011;40967;52.070;8.596;2022-08-20T06:06:10;6.10;;;4.47;;
55069;SDS011;40967;52.070;8.596;2022-08-20T06:08:36;5.35;;;3.80;;
55069;SDS011;40967;52.070;8.596;2022-08-20T06:11:02;6.30;;;4.47;;
55069;SDS011;40967;52.070;8.596;2022-08-20T06:13:28;6.50;;;4.63;;
55069;SDS011;40967;52.070;8.596;2022-08-20T06:15:54;5.70;;;4.00;;
55069;SDS011;40967;52.070;8.596;2022-08-20T06:18:20;5.55;;;3.88;;
55069;SDS011;40967;52.070;8.596;2022-08-20T06:20:46;4.63;;;2.97;;
55069;SDS011;40967;52.070;8.596;2022-08-20T06:23:12;3.97;;;2.60;;
55069;SDS011;40967;52.070;8.596;2022-08-20T06:25:37;4.20;;;2.80;;
55069;SDS011;40967;52.070;8.596;2022-08-20T06:28:03;4.80;;;3.23;;
55069;SDS011;40967;52.070;8.596;2022-08-20T06:30:29;5.03;;;3.23;;
55069;SDS011;40967;52.070;8.596;2022-08-20T06:32:55;4.10;;;2.60;;
55069;SDS011;40967;52.070;8.596;2022-08-20T06:35:20;4.13;;;2.50;;
55069;SDS011;40967;52.070;8.596;2022-08-20T06:37:45;3.65;;;2.35;;
55069;SDS011;40967;52.070;8.596;2022-08-20T06:40:21;3.80;;;2.40;;
55069;SDS011;40967;52.070;8.596;2022-08-20T06:42:49;3.33;;;2.13;;
55069;SDS011;40967;52.070;8.596;2022-08-20T06:45:17;3.58;;;2.20;;
55069;SDS011;40967;52.070;8.596;2022-08-20T06:47:48;6.22;;;4.50;;
55069;SDS011;40967;52.070;8.596;2022-08-20T06:50:16;5.03;;;3.50;;
55069;SDS011;40967;52.070;8.596;2022-08-20T06:52:47;6.82;;;4.72;;
55069;SDS011;40967;52.070;8.596;2022-08-20T06:55:14;4.70;;;3.10;;
55069;SDS011;40967;52.070;8.596;2022-08-20T06:57:40;3.70;;;2.33;;
55069;SDS011;40967;52.070;8.596;2022-08-20T07:00:08;3.37;;;2.07;;
55069;SDS011;40967;52.070;8.596;2022-08-20T07:02:36;3.00;;;1.80;;
55069;SDS011;40967;52.070;8.596;2022-08-20T07:05:02;2.53;;;1.60;;
55069;SDS011;40967;52.070;8.596;2022-08-20T07:07:29;2.83;;;1.67;;
55069;SDS011;40967;52.070;8.596;2022-08-20T07:10:03;2.63;;;1.80;;
55069;SDS011;40967;52.070;8.596;2022-08-20T07:12:33;2.58;;;1.60;;
55069;SDS011;40967;52.070;8.596;2022-08-20T07:15:01;3.03;;;1.92;;
55069;SDS011;40967;52.070;8.596;2022-08-20T07:17:28;3.00;;;1.70;;
55069;SDS011;40967;52.070;8.596;2022-08-20T07:19:53;2.53;;;1.60;;
55069;SDS011;40967;52.070;8.596;2022-08-20T07:22:19;2.80;;;1.88;;
55069;SDS011;40967;52.070;8.596;2022-08-20T07:24:44;2.22;;;1.60;;
55069;SDS011;40967;52.070;8.596;2022-08-20T07:27:10;2.20;;;1.45;;
55069;SDS011;40967;52.070;8.596;2022-08-20T07:29:35;2.03;;;1.20;;
55069;SDS011;40967;52.070;8.596;2022-08-20T07:32:19;2.70;;;1.73;;
55069;SDS011;40967;52.070;8.596;2022-08-20T07:35:02;2.28;;;1.40;;
55069;SDS011;40967;52.070;8.596;2022-08-20T07:37:29;3.45;;;2.30;;
55069;SDS011;40967;52.070;8.596;2022-08-20T07:39:54;2.40;;;1.60;;
55069;SDS011;40967;52.070;8.596;2022-08-20T07:42:20;2.23;;;1.40;;
55069;SDS011;40967;52.070;8.596;2022-08-20T07:44:45;2.03;;;1.43;;
55069;SDS011;40967;52.070;8.596;2022-08-20T07:47:10;1.47;;;1.00;;
55069;SDS011;40967;52.070;8.596;2022-08-20T07:49:36;2.00;;;1.13;;
55069;SDS011;40967;52.070;8.596;2022-08-20T07:52:03;1.70;;;1.20;;
55069;SDS011;40967;52.070;8.596;2022-08-20T07:54:29;2.85;;;1.67;;
55069;SDS011;40967;52.070;8.596;2022-08-20T07:56:58;2.78;;;1.70;;
55069;SDS011;40967;52.070;8.596;2022-08-20T07:59:26;2.90;;;1.50;;
55069;SDS011;40967;52.070;8.596;2022-08-20T08:01:52;2.43;;;1.23;;
55069;SDS011;40967;52.070;8.596;2022-08-20T08:04:17;4.10;;;2.70;;
55069;SDS011;40967;52.070;8.596;2022-08-20T08:06:42;3.50;;;2.10;;
55069;SDS011;40967;52.070;8.596;2022-08-20T08:09:09;2.42;;;1.58;;
55069;SDS011;40967;52.070;8.596;2022-08-20T08:11:39;3.58;;;2.20;;
55069;SDS011;40967;52.070;8.596;2022-08-20T08:14:08;1.95;;;1.40;;
55069;SDS011;40967;52.070;8.596;2022-08-20T08:16:35;1.90;;;1.20;;
55069;SDS011;40967;52.070;8.596;2022-08-20T08:19:03;1.75;;;1.20;;
55069;SDS011;40967;52.070;8.596;2022-08-20T08:21:32;1.67;;;1.00;;
55069;SDS011;40967;52.070;8.596;2022-08-20T08:23:58;1.20;;;0.90;;
55069;SDS011;40967;52.070;8.596;2022-08-20T08:26:24;1.00;;;0.80;;
55069;SDS011;40967;52.070;8.596;2022-08-20T08:28:50;0.67;;;0.63;;
55069;SDS011;40967;52.070;8.596;2022-08-20T08:31:15;0.70;;;0.60;;
55069;SDS011;40967;52.070;8.596;2022-08-20T08:33:41;1.20;;;0.90;;
55069;SDS011;40967;52.070;8.596;2022-08-20T08:36:07;1.27;;;1.00;;
55069;SDS011;40967;52.070;8.596;2022-08-20T08:38:36;0.80;;;0.70;;
55069;SDS011;40967;52.070;8.596;2022-08-20T08:41:10;0.95;;;0.80;;
55069;SDS011;40967;52.070;8.596;2022-08-20T08:43:46;2.58;;;1.75;;
55069;SDS011;40967;52.070;8.596;2022-08-20T08:46:18;1.80;;;1.17;;
55069;SDS011;40967;52.070;8.596;2022-08-20T08:48:48;1.67;;;0.80;;
55069;SDS011;40967;52.070;8.596;2022-08-20T08:51:20;1.40;;;0.90;;
55069;SDS011;40967;52.070;8.596;2022-08-20T08:53:54;1.10;;;0.90;;
55069;SDS011;40967;52.070;8.596;2022-08-20T08:56:26;0.90;;;0.70;;
55069;SDS011;40967;52.070;8.596;2022-08-20T08:59:02;0.80;;;0.70;;
55069;SDS011;40967;52.070;8.596;2022-08-20T09:01:31;1.10;;;0.70;;
55069;SDS011;40967;52.070;8.596;2022-08-20T09:04:00;1.00;;;0.70;;
55069;SDS011;40967;52.070;8.596;2022-08-20T09:06:26;1.07;;;0.87;;
55069;SDS011;40967;52.070;8.596;2022-08-20T09:08:57;0.80;;;0.70;;
55069;SDS011;40967;52.070;8.596;2022-08-20T09:11:26;1.10;;;0.82;;
55069;SDS011;40967;52.070;8.596;2022-08-20T09:13:52;1.10;;;0.80;;
55069;SDS011;40967;52.070;8.596;2022-08-20T09:16:18;1.13;;;0.75;;
55069;SDS011;40967;52.070;8.596;2022-08-20T09:18:46;1.93;;;1.40;;
55069;SDS011;40967;52.070;8.596;2022-08-20T09:21:12;1.75;;;1.10;;
55069;SDS011;40967;52.070;8.596;2022-08-20T09:23:38;1.60;;;1.10;;
55069;SDS011;40967;52.070;8.596;2022-08-20T09:26:05;1.98;;;1.30;;
55069;SDS011;40967;52.070;8.596;2022-08-20T09:28:30;1.50;;;1.00;;
55069;SDS011;40967;52.070;8.596;2022-08-20T09:30:56;1.90;;;1.20;;
55069;SDS011;40967;52.070;8.596;2022-08-20T09:33:21;1.70;;;1.20;;
55069;SDS011;40967;52.070;8.596;2022-08-20T09:35:47;1.92;;;1.40;;
55069;SDS011;40967;52.070;8.596;2022-08-20T09:38:12;2.30;;;1.43;;
55069;SDS011;40967;52.070;8.596;2022-08-20T09:40:38;1.67;;;1.10;;
55069;SDS011;40967;52.070;8.596;2022-08-20T09:43:04;2.63;;;1.30;;
55069;SDS011;40967;52.070;8.596;2022-08-20T09:45:30;1.63;;;1.27;;
55069;SDS011;40967;52.070;8.596;2022-08-20T09:47:56;1.50;;;1.00;;
55069;SDS011;40967;52.070;8.596;2022-08-20T09:50:21;1.87;;;1.20;;
55069;SDS011;40967;52.070;8.596;2022-08-20T09:52:47;1.60;;;1.00;;
55069;SDS011;40967;52.070;8.596;2022-08-20T09:58:01;1.90;;;1.10;;
55069;SDS011;40967;52.070;8.596;2022-08-20T10:00:30;1.13;;;0.80;;
55069;SDS011;40967;52.070;8.596;2022-08-20T10:02:55;1.07;;;0.80;;
55069;SDS011;40967;52.070;8.596;2022-08-20T10:05:21;3.17;;;2.07;;
55069;SDS011;40967;52.070;8.596;2022-08-20T10:07:46;2.17;;;1.37;;
55069;SDS011;40967;52.070;8.596;2022-08-20T10:10:12;1.73;;;1.10;;
55069;SDS011;40967;52.070;8.596;2022-08-20T10:12:39;1.42;;;1.00;;
55069;SDS011;40967;52.070;8.596;2022-08-20T10:15:05;1.60;;;1.07;;
55069;SDS011;40967;52.070;8.596;2022-08-20T10:17:31;1.50;;;1.10;;
55069;SDS011;40967;52.070;8.596;2022-08-20T10:19:57;1.00;;;0.80;;
55069;SDS011;40967;52.070;8.596;2022-08-20T10:22:22;1.07;;;0.80;;
55069;SDS011;40967;52.070;8.596;2022-08-20T10:24:48;1.00;;;0.70;;
55069;SDS011;40967;52.070;8.596;2022-08-20T10:27:14;0.90;;;0.60;;
55069;SDS011;40967;52.070;8.596;2022-08-20T10:29:39;0.87;;;0.77;;
55069;SDS011;40967;52.070;8.596;2022-08-20T10:32:08;1.00;;;0.83;;
55069;SDS011;40967;52.070;8.596;2022-08-20T10:34:38;2.35;;;1.20;;
55069;SDS011;40967;52.070;8.596;2022-08-20T10:37:04;1.77;;;1.20;;
55069;SDS011;40967;52.070;8.596;2022-08-20T10:39:30;1.55;;;1.00;;
55069;SDS011;40967;52.070;8.596;2022-08-20T10:41:55;1.47;;;0.97;;
55069;SDS011;40967;52.070;8.596;2022-08-20T10:44:21;2.30;;;1.30;;
55069;SDS011;40967;52.070;8.596;2022-08-20T10:46:46;1.83;;;1.20;;
55069;SDS011;40967;52.070;8.596;2022-08-20T10:49:11;2.43;;;1.80;;
55069;SDS011;40967;52.070;8.596;2022-08-20T10:51:37;1.80;;;1.27;;
55069;SDS011;40967;52.070;8.596;2022-08-20T10:54:02;1.75;;;1.08;;
55069;SDS011;40967;52.070;8.596;2022-08-20T10:56:27;1.75;;;1.00;;
55069;SDS011;40967;52.070;8.596;2022-08-20T10:58:53;1.13;;;0.80;;
55069;SDS011;40967;52.070;8.596;2022-08-20T11:01:18;1.60;;;1.10;;
55069;SDS011;40967;52.070;8.596;2022-08-20T11:03:44;2.47;;;1.50;;
55069;SDS011;40967;52.070;8.596;2022-08-20T11:06:09;2.00;;;1.13;;
55069;SDS011;40967;52.070;8.596;2022-08-20T11:08:35;2.47;;;1.30;;
55069;SDS011;40967;52.070;8.596;2022-08-20T11:11:00;1.80;;;1.20;;
55069;SDS011;40967;52.070;8.596;2022-08-20T11:13:25;2.67;;;1.70;;
55069;SDS011;40967;52.070;8.596;2022-08-20T11:15:51;2.00;;;1.50;;
55069;SDS011;40967;52.070;8.596;2022-08-20T11:18:16;1.92;;;1.30;;
55069;SDS011;40967;52.070;8.596;2022-08-20T11:20:42;2.60;;;1.40;;
55069;SDS011;40967;52.070;8.596;2022-08-20T11:23:07;1.80;;;1.50;;
55069;SDS011;40967;52.070;8.596;2022-08-20T11:25:33;2.55;;;1.48;;
55069;SDS011;40967;52.070;8.596;2022-08-20T11:27:58;2.10;;;1.30;;
55069;SDS011;40967;52.070;8.596;2022-08-20T11:30:25;3.78;;;1.67;;
55069;SDS011;40967;52.070;8.596;2022-08-20T11:32:53;2.30;;;1.40;;
55069;SDS011;40967;52.070;8.596;2022-08-20T11:35:19;3.35;;;2.05;;
55069;SDS011;40967;52.070;8.596;2022-08-20T11:37:47;1.98;;;1.35;;
55069;SDS011;40967;52.070;8.596;2022-08-20T11:40:13;1.65;;;1.10;;
55069;SDS011;40967;52.070;8.596;2022-08-20T11:42:38;2.60;;;1.30;;
55069;SDS011;40967;52.070;8.596;2022-08-20T11:45:04;2.40;;;1.50;;
55069;SDS011;40967;52.070;8.596;2022-08-20T11:47:30;3.20;;;1.80;;
55069;SDS011;40967;52.070;8.596;2022-08-20T11:52:29;1.65;;;1.10;;
55069;SDS011;40967;52.070;8.596;2022-08-20T11:55:24;1.50;;;1.10;;
55069;SDS011;40967;52.070;8.596;2022-08-20T11:57:49;1.80;;;1.20;;
55069;SDS011;40967;52.070;8.596;2022-08-20T12:00:17;1.30;;;0.87;;
55069;SDS011;40967;52.070;8.596;2022-08-20T12:02:45;1.48;;;0.95;;
55069;SDS011;40967;52.070;8.596;2022-08-20T12:05:11;1.30;;;0.93;;
55069;SDS011;40967;52.070;8.596;2022-08-20T12:07:37;1.35;;;1.00;;
55069;SDS011;40967;52.070;8.596;2022-08-20T12:10:03;2.37;;;1.10;;
55069;SDS011;40967;52.070;8.596;2022-08-20T12:12:30;2.20;;;1.40;;
55069;SDS011;40967;52.070;8.596;2022-08-20T12:14:56;1.52;;;0.90;;
55069;SDS011;40967;52.070;8.596;2022-08-20T12:17:23;1.67;;;0.90;;
55069;SDS011;40967;52.070;8.596;2022-08-20T12:19:51;1.00;;;0.70;;
55069;SDS011;40967;52.070;8.596;2022-08-20T12:22:18;1.27;;;0.80;;
55069;SDS011;40967;52.070;8.596;2022-08-20T12:24:43;0.90;;;0.70;;
55069;SDS011;40967;52.070;8.596;2022-08-20T12:29:37;0.77;;;0.65;;
55069;SDS011;40967;52.070;8.596;2022-08-20T12:32:03;1.40;;;0.80;;
55069;SDS011;40967;52.070;8.596;2022-08-20T12:34:31;0.68;;;0.60;;
55069;SDS011;40967;52.070;8.596;2022-08-20T12:37:01;0.95;;;0.60;;
55069;SDS011;40967;52.070;8.596;2022-08-20T12:39:29;0.45;;;0.45;;
55069;SDS011;40967;52.070;8.596;2022-08-20T12:41:57;0.73;;;0.60;;
55069;SDS011;40967;52.070;8.596;2022-08-20T12:44:24;0.75;;;0.60;;
55069;SDS011;40967;52.070;8.596;2022-08-20T12:46:49;1.87;;;0.80;;
55069;SDS011;40967;52.070;8.596;2022-08-20T12:49:14;0.90;;;0.60;;
55069;SDS011;40967;52.070;8.596;2022-08-20T12:51:40;1.33;;;0.80;;
55069;SDS011;40967;52.070;8.596;2022-08-20T12:54:05;1.13;;;0.70;;
55069;SDS011;40967;52.070;8.596;2022-08-20T12:56:31;1.03;;;0.80;;
55069;SDS011;40967;52.070;8.596;2022-08-20T12:58:56;1.10;;;0.80;;
55069;SDS011;40967;52.070;8.596;2022-08-20T13:01:21;1.50;;;0.80;;
55069;SDS011;40967;52.070;8.596;2022-08-20T13:03:47;0.90;;;0.70;;
55069;SDS011;40967;52.070;8.596;2022-08-20T13:06:12;0.70;;;0.70;;
55069;SDS011;40967;52.070;8.596;2022-08-20T13:08:38;0.70;;;0.60;;
55069;SDS011;40967;52.070;8.596;2022-08-20T13:11:03;0.87;;;0.67;;
55069;SDS011;40967;52.070;8.596;2022-08-20T13:13:28;1.08;;;0.65;;
55069;SDS011;40967;52.070;8.596;2022-08-20T13:15:54;2.13;;;0.70;;
55069;SDS011;40967;52.070;8.596;2022-08-20T13:18:19;1.60;;;0.70;;
55069;SDS011;40967;52.070;8.596;2022-08-20T13:20:45;0.70;;;0.60;;
55069;SDS011;40967;52.070;8.596;2022-08-20T13:23:10;1.10;;;0.60;;
55069;SDS011;40967;52.070;8.596;2022-08-20T13:25:36;1.30;;;0.67;;
55069;SDS011;40967;52.070;8.596;2022-08-20T13:28:02;1.00;;;0.70;;
55069;SDS011;40967;52.070;8.596;2022-08-20T13:30:28;0.67;;;0.50;;
55069;SDS011;40967;52.070;8.596;2022-08-20T13:32:55;0.68;;;0.50;;
55069;SDS011;40967;52.070;8.596;2022-08-20T13:35:20;0.53;;;0.47;;
55069;SDS011;40967;52.070;8.596;2022-08-20T13:37:47;0.85;;;0.52;;
55069;SDS011;40967;52.070;8.596;2022-08-20T13:40:13;1.27;;;0.60;;
55069;SDS011;40967;52.070;8.596;2022-08-20T13:42:39;0.80;;;0.60;;
55069;SDS011;40967;52.070;8.596;2022-08-20T13:45:04;1.10;;;0.70;;
55069;SDS011;40967;52.070;8.596;2022-08-20T13:47:31;0.80;;;0.60;;
55069;SDS011;40967;52.070;8.596;2022-08-20T13:52:29;0.68;;;0.50;;
55069;SDS011;40967;52.070;8.596;2022-08-20T13:54:55;0.60;;;0.43;;
55069;SDS011;40967;52.070;8.596;2022-08-20T13:57:21;1.83;;;0.80;;
55069;SDS011;40967;52.070;8.596;2022-08-20T13:59:49;1.40;;;0.70;;
55069;SDS011;40967;52.070;8.596;2022-08-20T14:02:16;1.30;;;0.60;;
55069;SDS011;40967;52.070;8.596;2022-08-20T14:04:42;0.75;;;0.70;;
55069;SDS011;40967;52.070;8.596;2022-08-20T14:07:19;0.90;;;0.63;;
55069;SDS011;40967;52.070;8.596;2022-08-20T14:09:46;1.67;;;0.83;;
55069;SDS011;40967;52.070;8.596;2022-08-20T14:12:13;1.60;;;0.70;;
55069;SDS011;40967;52.070;8.596;2022-08-20T14:14:39;1.60;;;0.90;;
55069;SDS011;40967;52.070;8.596;2022-08-20T14:17:13;2.47;;;1.00;;
55069;SDS011;40967;52.070;8.596;2022-08-20T14:19:43;1.35;;;0.73;;
55069;SDS011;40967;52.070;8.596;2022-08-20T14:22:09;2.05;;;0.95;;
55069;SDS011;40967;52.070;8.596;2022-08-20T14:24:35;2.90;;;1.20;;
55069;SDS011;40967;52.070;8.596;2022-08-20T14:27:06;1.43;;;0.70;;
55069;SDS011;40967;52.070;8.596;2022-08-20T14:29:36;1.33;;;0.75;;
55069;SDS011;40967;52.070;8.596;2022-08-20T14:32:03;1.97;;;1.03;;
55069;SDS011;40967;52.070;8.596;2022-08-20T14:34:29;1.95;;;1.00;;
55069;SDS011;40967;52.070;8.596;2022-08-20T14:36:55;2.83;;;1.20;;
55069;SDS011;40967;52.070;8.596;2022-08-20T14:39:32;2.50;;;1.00;;
55069;SDS011;40967;52.070;8.596;2022-08-20T14:41:58;1.57;;;0.90;;
55069;SDS011;40967;52.070;8.596;2022-08-20T14:44:23;1.63;;;0.90;;
55069;SDS011;40967;52.070;8.596;2022-08-20T14:46:49;1.60;;;0.60;;
55069;SDS011;40967;52.070;8.596;2022-08-20T14:49:14;0.83;;;0.53;;
55069;SDS011;40967;52.070;8.596;2022-08-20T14:51:39;0.90;;;0.50;;
55069;SDS011;40967;52.070;8.596;2022-08-20T14:54:05;1.00;;;0.60;;
55069;SDS011;40967;52.070;8.596;2022-08-20T14:56:31;0.70;;;0.50;;
55069;SDS011;40967;52.070;8.596;2022-08-20T14:58:56;1.10;;;0.50;;
55069;SDS011;40967;52.070;8.596;2022-08-20T15:01:21;1.57;;;0.70;;
55069;SDS011;40967;52.070;8.596;2022-08-20T15:03:47;1.37;;;0.60;;
55069;SDS011;40967;52.070;8.596;2022-08-20T15:06:12;1.20;;;0.60;;
55069;SDS011;40967;52.070;8.596;2022-08-20T15:08:38;0.60;;;0.40;;
55069;SDS011;40967;52.070;8.596;2022-08-20T15:11:03;0.93;;;0.50;;